Time;durP1;ratioP1;P1;durP2;ratioP2;P2;SDS_P1;SDS_P2;PMS_P1;PMS_P2;Temp;Humidity;BMP_temperature;BMP_pressure;BME280_temperature;BME280_humidity;BME280_pressure;Samples;Min_cycle;Max_cycle;Signal;HPM_P1;HPM_P2
2022/08/01 00:01:21;;;;;;;9.88;9.07;;;;;;;17.85;100.00;101032.66;4973707;28;20567;-49
2022/08/01 00:03:46;;;;;;;9.93;9.05;;;;;;;17.91;100.00;101032.25;4973182;28;20214;-48
2022/08/01 00:06:12;;;;;;;12.60;11.50;;;;;;;17.77;100.00;101024.13;4972391;28;20170;-48
2022/08/01 00:08:37;;;;;;;10.27;9.48;;;;;;;17.84;100.00;101034.50;4973608;28;20574;-49
2022/08/01 00:11:03;;;;;;;13.75;12.65;;;;;;;17.71;100.00;101031.69;4973394;28;20252;-50
2022/08/01 00:13:28;;;;;;;11.73;10.45;;;;;;;17.81;100.00;101036.50;4972444;28;20269;-48
2022/08/01 00:15:53;;;;;;;12.70;11.65;;;;;;;17.76;100.00;101031.38;4973493;28;20217;-43
2022/08/01 00:18:19;;;;;;;12.80;11.70;;;;;;;17.84;100.00;101026.38;4973693;28;20181;-43
2022/08/01 00:20:45;;;;;;;14.23;12.88;;;;;;;17.76;100.00;101031.38;4973282;28;20257;-44
2022/08/01 00:23:10;;;;;;;13.77;12.52;;;;;;;17.69;100.00;101028.22;4972865;28;20185;-43
2022/08/01 00:25:36;;;;;;;12.35;11.32;;;;;;;17.80;100.00;101026.63;4973445;28;20209;-44
2022/08/01 00:28:01;;;;;;;15.30;14.10;;;;;;;17.63;100.00;101025.88;4973284;28;20190;-45
2022/08/01 00:30:27;;;;;;;13.45;12.13;;;;;;;17.76;100.00;101023.25;4973330;28;20232;-44
2022/08/01 00:32:52;;;;;;;15.18;13.68;;;;;;;17.75;100.00;101021.50;4973099;28;20693;-43
2022/08/01 00:35:18;;;;;;;12.00;10.85;;;;;;;17.81;100.00;101025.66;4972429;28;20193;-43
2022/08/01 00:37:43;;;;;;;12.35;11.35;;;;;;;17.84;100.00;101029.09;4972064;28;20193;-43
2022/08/01 00:40:09;;;;;;;15.02;13.73;;;;;;;17.73;100.00;101031.56;4973020;28;20185;-44
2022/08/01 00:42:35;;;;;;;11.00;9.95;;;;;;;17.87;100.00;101030.72;4973508;28;20190;-44
2022/08/01 00:45:00;;;;;;;17.20;15.60;;;;;;;17.80;100.00;101023.91;4972326;28;20220;-43
2022/08/01 00:47:26;;;;;;;19.50;17.70;;;;;;;17.58;100.00;101038.88;4972982;28;20277;-45
2022/08/01 00:49:51;;;;;;;18.40;16.60;;;;;;;17.66;100.00;101027.53;4972852;28;20189;-44
2022/08/01 00:52:17;;;;;;;18.13;16.48;;;;;;;17.65;100.00;101023.94;4972710;28;20210;-44
2022/08/01 00:54:43;;;;;;;20.05;17.92;;;;;;;17.69;100.00;101022.78;4972553;28;20178;-44
2022/08/01 00:57:09;;;;;;;25.67;19.95;;;;;;;17.69;100.00;101027.34;4972251;28;20182;-45
2022/08/01 00:59:36;;;;;;;23.45;20.92;;;;;;;17.68;100.00;101023.75;4972081;28;20185;-45
2022/08/01 01:02:01;;;;;;;25.90;23.30;;;;;;;17.55;100.00;101025.50;4972029;28;20442;-43
2022/08/01 01:04:26;;;;;;;25.67;22.95;;;;;;;17.47;100.00;101031.44;4971638;28;20261;-45
2022/08/01 01:07:07;;;;;;;26.27;23.40;;;;;;;17.56;100.00;101038.09;4972834;28;20182;-45
2022/08/01 01:09:50;;;;;;;35.03;26.15;;;;;;;17.51;100.00;101032.09;4972441;28;20186;-45
2022/08/01 01:12:30;;;;;;;29.05;25.05;;;;;;;17.56;100.00;101032.69;4972461;28;20206;-44
2022/08/01 01:15:01;;;;;;;29.13;24.65;;;;;;;17.63;100.00;101031.31;4971751;28;20174;-44
2022/08/01 01:17:49;;;;;;;31.67;25.65;;;;;;;17.44;100.00;101037.03;4972299;28;20193;-44
2022/08/01 01:20:16;;;;;;;39.22;30.02;;;;;;;17.49;100.00;101029.50;4972471;28;20178;-46
2022/08/01 01:22:53;;;;;;;42.60;30.50;;;;;;;17.41;100.00;101031.81;4972413;28;20178;-44
2022/08/01 01:25:37;;;;;;;39.97;30.02;;;;;;;17.46;100.00;101036.94;4971821;28;20193;-44
2022/08/01 01:28:35;;;;;;;33.80;25.90;;;;;;;17.48;100.00;101041.28;4972030;28;20244;-44
2022/08/01 01:31:04;;;;;;;41.70;26.75;;;;;;;17.36;100.00;101033.06;4987206;28;20645;-45
2022/08/01 01:33:31;;;;;;;39.90;26.40;;;;;;;17.39;100.00;101033.75;4990462;28;20212;-43
2022/08/01 01:36:04;;;;;;;37.13;25.13;;;;;;;17.39;100.00;101041.00;4991882;28;20177;-41
2022/08/01 01:38:34;;;;;;;42.58;27.90;;;;;;;17.25;100.00;101040.06;4991425;28;20181;-43
2022/08/01 01:41:02;;;;;;;30.20;24.17;;;;;;;17.35;100.00;101042.16;4991161;28;20205;-43
2022/08/01 01:43:29;;;;;;;43.00;26.27;;;;;;;17.23;100.00;101030.25;4990749;28;20188;-43
2022/08/01 01:45:55;;;;;;;34.58;26.63;;;;;;;17.29;100.00;101040.72;4991181;28;20712;-43
2022/08/01 01:48:24;;;;;;;37.67;26.83;;;;;;;17.17;100.00;101039.66;4990302;28;20277;-43
2022/08/01 01:50:52;;;;;;;30.40;22.40;;;;;;;17.27;100.00;101042.63;4991422;28;20618;-43
2022/08/01 01:53:20;;;;;;;37.35;26.98;;;;;;;17.17;100.00;101039.66;4986504;28;20214;-42
2022/08/01 01:55:49;;;;;;;32.13;23.05;;;;;;;17.28;100.00;101039.84;4991131;28;20213;-42
2022/08/01 01:58:17;;;;;;;36.78;26.42;;;;;;;17.25;100.00;101039.16;4990916;28;20288;-44
2022/08/01 02:00:45;;;;;;;32.50;25.30;;;;;;;17.28;100.00;101047.97;4991252;28;20263;-45
2022/08/01 02:03:12;;;;;;;34.53;25.10;;;;;;;17.22;100.00;101045.63;4990437;28;20285;-44
2022/08/01 02:05:39;;;;;;;35.22;24.05;;;;;;;17.10;100.00;101051.84;4991219;28;20170;-43
2022/08/01 02:08:06;;;;;;;34.42;25.00;;;;;;;17.13;100.00;101039.94;4983809;28;20190;-45
2022/08/01 02:10:34;;;;;;;32.10;22.20;;;;;;;17.26;100.00;101046.31;4977054;28;20199;-43
2022/08/01 02:13:03;;;;;;;36.28;24.90;;;;;;;17.16;100.00;101047.84;4989452;28;20691;-45
2022/08/01 02:15:38;;;;;;;33.25;23.85;;;;;;;17.15;100.00;101038.88;4990854;28;20177;-45
2022/08/01 02:18:07;;;;;;;30.90;22.70;;;;;;;17.24;100.00;101043.72;4990911;28;20177;-44
2022/08/01 02:20:36;;;;;;;30.55;23.50;;;;;;;17.20;100.00;101035.88;4989286;28;20203;-45
2022/08/01 02:23:11;;;;;;;28.60;22.45;;;;;;;17.25;100.00;101047.28;4990195;28;20182;-46
2022/08/01 02:25:44;;;;;;;35.42;24.88;;;;;;;17.22;100.00;101045.63;4990360;28;20176;-45
2022/08/01 02:28:17;;;;;;;31.02;22.35;;;;;;;17.28;100.00;101037.13;4990779;28;20188;-46
2022/08/01 02:30:48;;;;;;;32.08;23.08;;;;;;;17.25;100.00;101036.44;4990346;28;20692;-44
2022/08/01 02:33:18;;;;;;;33.58;24.77;;;;;;;17.25;100.00;101049.97;4990212;28;20296;-44
2022/08/01 02:35:50;;;;;;;31.85;24.55;;;;;;;17.23;100.00;101041.09;4990693;28;21133;-45
2022/08/01 02:38:18;;;;;;;31.60;22.63;;;;;;;17.14;100.00;101045.25;4990722;28;20181;-43
2022/08/01 02:40:46;;;;;;;34.83;22.15;;;;;;;17.07;100.00;101049.31;4990432;28;20606;-43
2022/08/01 02:43:15;;;;;;;24.63;20.50;;;;;;;17.01;100.00;101045.16;4990360;28;20247;-44
2022/08/01 02:45:45;;;;;;;26.33;19.45;;;;;;;17.02;100.00;101046.88;4990711;28;20537;-44
2022/08/01 02:48:12;;;;;;;28.05;19.55;;;;;;;17.06;100.00;101053.84;4988861;28;20169;-45
2022/08/01 02:50:41;;;;;;;20.55;17.27;;;;;;;17.09;100.00;101048.22;4990696;28;20296;-45
2022/08/01 02:53:11;;;;;;;26.77;20.30;;;;;;;16.98;100.00;101056.16;4990083;28;20232;-45
2022/08/01 02:55:39;;;;;;;28.50;20.42;;;;;;;16.87;100.00;101056.81;4990378;28;20569;-45
2022/08/01 02:58:08;;;;;;;22.85;20.45;;;;;;;16.89;100.00;101060.28;4990493;28;20637;-44
2022/08/01 03:00:35;;;;;;;27.25;21.85;;;;;;;16.90;100.00;101066.56;4990018;28;20755;-44
2022/08/01 03:03:03;;;;;;;24.15;20.02;;;;;;;17.02;100.00;101063.13;4990078;28;20186;-44
2022/08/01 03:05:31;;;;;;;24.65;19.90;;;;;;;17.00;100.00;101077.72;4990632;28;20173;-43
2022/08/01 03:07:58;;;;;;;24.83;20.52;;;;;;;16.93;100.00;101070.94;4990287;28;20272;-43
2022/08/01 03:10:28;;;;;;;25.55;21.35;;;;;;;17.01;100.00;101069.53;4990104;28;20258;-44
2022/08/01 03:12:55;;;;;;;27.08;20.15;;;;;;;16.89;100.00;101071.13;4990411;28;20655;-43
2022/08/01 03:15:22;;;;;;;24.65;20.30;;;;;;;16.85;100.00;101072.25;4990156;28;20815;-43
2022/08/01 03:17:51;;;;;;;23.00;18.90;;;;;;;16.94;100.00;101065.44;4990134;28;20177;-44
2022/08/01 03:20:18;;;;;;;26.08;18.13;;;;;;;16.93;100.00;101066.41;4990733;28;20625;-41
2022/08/01 03:22:45;;;;;;;24.48;17.75;;;;;;;16.94;100.00;101072.69;4993086;28;20193;-43
2022/08/01 03:25:14;;;;;;;23.48;17.38;;;;;;;16.94;100.00;101060.00;4993328;28;20722;-43
2022/08/01 03:27:43;;;;;;;20.90;18.63;;;;;;;17.01;100.00;101066.81;4993535;28;20189;-45
2022/08/01 03:30:10;;;;;;;20.95;17.77;;;;;;;17.00;100.00;101072.31;4985546;28;20178;-44
2022/08/01 03:32:36;;;;;;;26.60;19.95;;;;;;;16.91;100.00;101079.16;4974338;28;20302;-45
2022/08/01 03:35:01;;;;;;;21.30;19.05;;;;;;;16.88;100.00;101082.94;4973529;28;20592;-42
2022/08/01 03:37:34;;;;;;;27.23;19.10;;;;;;;16.91;100.00;101083.72;4974500;28;20265;-45
2022/08/01 03:40:08;;;;;;;22.85;18.08;;;;;;;16.95;100.00;101082.56;4974294;28;20835;-45
2022/08/01 03:42:38;;;;;;;21.13;18.45;;;;;;;16.90;100.00;101077.41;4974111;28;20288;-43
2022/08/01 03:45:15;;;;;;;19.60;17.25;;;;;;;16.99;100.00;101087.69;4973197;28;20668;-44
2022/08/01 03:47:43;;;;;;;26.20;19.35;;;;;;;16.95;100.00;101093.38;4973868;28;20182;-44
2022/08/01 03:50:11;;;;;;;26.23;19.70;;;;;;;16.93;100.00;101081.78;4972643;28;20652;-43
2022/08/01 03:52:40;;;;;;;21.88;18.38;;;;;;;16.91;100.00;101079.16;4976898;28;20217;-43
2022/08/01 03:55:07;;;;;;;27.00;20.80;;;;;;;16.96;100.00;101084.28;4988202;28;20186;-43
2022/08/01 03:57:34;;;;;;;30.48;23.17;;;;;;;16.89;100.00;101090.06;4988583;28;20185;-43
2022/08/01 04:00:00;;;;;;;31.30;23.50;;;;;;;16.96;100.00;101089.69;4992828;28;20205;-44
2022/08/01 04:02:29;;;;;;;29.02;21.77;;;;;;;16.93;100.00;101093.47;4992858;28;20201;-44
2022/08/01 04:04:55;;;;;;;26.90;20.63;;;;;;;16.96;100.00;101090.56;4992489;28;20181;-43
2022/08/01 04:07:38;;;;;;;27.83;19.63;;;;;;;16.91;100.00;101094.53;4987454;28;20384;-44
2022/08/01 04:10:05;;;;;;;23.65;18.50;;;;;;;16.90;100.00;101104.47;4979957;28;20182;-43
2022/08/01 04:12:32;;;;;;;16.00;14.43;;;;;;;17.01;100.00;101101.09;4988279;28;20209;-43
2022/08/01 04:14:58;;;;;;;21.42;15.52;;;;;;;16.94;100.00;101103.31;4992142;28;20205;-45
2022/08/01 04:17:24;;;;;;;18.63;15.05;;;;;;;17.01;100.00;101106.53;4992831;28;20505;-45
2022/08/01 04:19:50;;;;;;;15.27;13.75;;;;;;;16.89;100.00;101097.31;4992388;28;20170;-45
2022/08/01 04:22:16;;;;;;;19.58;15.30;;;;;;;16.85;100.00;101107.44;4992531;28;20571;-43
2022/08/01 04:24:48;;;;;;;15.27;13.48;;;;;;;16.89;100.00;101119.84;4992058;28;20181;-43
2022/08/01 04:27:21;;;;;;;15.75;13.60;;;;;;;16.85;100.00;101120.13;4985115;28;20206;-44
2022/08/01 04:29:51;;;;;;;15.13;12.90;;;;;;;16.85;100.00;101120.13;4972985;28;20269;-43
2022/08/01 04:32:20;;;;;;;16.65;12.65;;;;;;;16.88;100.00;101118.09;4972200;28;20264;-44
2022/08/01 04:34:46;;;;;;;16.60;12.90;;;;;;;16.88;100.00;101123.53;4972751;28;20178;-45
2022/08/01 04:37:16;;;;;;;16.33;12.40;;;;;;;16.90;100.00;101126.13;4972924;28;20185;-43
2022/08/01 04:39:44;;;;;;;14.35;11.85;;;;;;;16.93;100.00;101127.78;4973401;28;20182;-45
2022/08/01 04:42:11;;;;;;;13.60;11.60;;;;;;;16.99;100.00;101140.94;4972989;28;20673;-43
2022/08/01 04:44:37;;;;;;;11.38;10.15;;;;;;;16.92;100.00;101126.03;4971040;28;20589;-44
2022/08/01 04:47:03;;;;;;;12.95;11.05;;;;;;;16.85;100.00;101137.22;4972900;28;20181;-43
2022/08/01 04:49:31;;;;;;;15.73;10.75;;;;;;;16.82;100.00;101134.72;4973276;28;20178;-44
2022/08/01 04:51:57;;;;;;;10.88;9.55;;;;;;;16.96;100.00;101135.72;4972743;28;20582;-44
2022/08/01 04:54:37;;;;;;;10.18;8.35;;;;;;;17.04;100.00;101137.00;4972313;28;20201;-43
2022/08/01 04:57:06;;;;;;;11.60;9.57;;;;;;;17.07;100.00;101139.50;4972650;28;20181;-43
2022/08/01 04:59:40;;;;;;;10.70;9.43;;;;;;;16.87;100.00;101143.41;4972881;28;20638;-45
2022/08/01 05:02:13;;;;;;;10.85;9.75;;;;;;;16.97;100.00;101148.31;4972481;28;20284;-46
2022/08/01 05:04:39;;;;;;;12.32;9.88;;;;;;;16.99;100.00;101152.66;4972361;28;20196;-45
2022/08/01 05:07:06;;;;;;;13.73;9.82;;;;;;;17.07;100.00;101152.19;4972742;28;20607;-42
2022/08/01 05:09:32;;;;;;;11.32;9.82;;;;;;;17.03;100.00;101158.72;4972918;28;20170;-43
2022/08/01 05:12:01;;;;;;;13.13;10.02;;;;;;;17.12;100.00;101150.09;4972344;28;20213;-43
2022/08/01 05:14:28;;;;;;;12.98;10.25;;;;;;;17.06;100.00;101153.16;4971927;28;20210;-43
2022/08/01 05:16:54;;;;;;;12.98;10.32;;;;;;;17.02;100.00;101151.59;4972759;28;20620;-45
2022/08/01 05:19:20;;;;;;;12.15;9.77;;;;;;;16.97;100.00;101160.00;4972343;28;20205;-44
2022/08/01 05:21:45;;;;;;;11.15;9.95;;;;;;;17.01;100.00;101166.06;4972368;28;20198;-44
2022/08/01 05:24:12;;;;;;;11.95;10.75;;;;;;;16.97;100.00;101161.84;4972011;28;20185;-45
2022/08/01 05:26:39;;;;;;;12.00;10.23;;;;;;;17.11;100.00;101161.84;4971859;28;20732;-43
2022/08/01 05:29:04;;;;;;;13.45;10.35;;;;;;;17.07;100.00;101158.44;4972467;28;20687;-43
2022/08/01 05:31:33;;;;;;;16.52;10.68;;;;;;;17.08;100.00;101159.34;4972253;28;20202;-45
2022/08/01 05:34:00;;;;;;;17.50;11.43;;;;;;;17.00;100.00;101177.88;4971824;28;20257;-45
2022/08/01 05:36:26;;;;;;;11.70;10.07;;;;;;;17.15;100.00;101173.38;4972026;28;20182;-43
2022/08/01 05:38:52;;;;;;;17.48;10.20;;;;;;;17.18;100.00;101168.63;4972078;28;20650;-44
2022/08/01 05:41:17;;;;;;;10.95;9.27;;;;;;;17.22;100.00;101170.19;4972015;28;20210;-43
2022/08/01 05:43:42;;;;;;;14.07;9.15;;;;;;;17.35;100.00;101170.31;4970761;28;20155;-43
2022/08/01 05:46:08;;;;;;;11.40;8.52;;;;;;;17.39;100.00;101182.72;4972409;28;20185;-45
2022/08/01 05:48:33;;;;;;;12.63;8.65;;;;;;;17.31;100.00;101176.91;4971895;28;20242;-45
2022/08/01 05:50:59;;;;;;;13.48;9.07;;;;;;;17.27;100.00;101180.75;4971942;28;20256;-43
2022/08/01 05:53:25;;;;;;;9.15;7.43;;;;;;;17.40;100.00;101186.28;4971338;28;20243;-46
2022/08/01 05:55:50;;;;;;;13.35;8.65;;;;;;;17.40;100.00;101189.88;4970607;28;20860;-46
2022/08/01 05:58:16;;;;;;;10.13;8.68;;;;;;;17.33;100.00;101193.06;4972020;28;20221;-45
2022/08/01 06:00:41;;;;;;;12.57;8.30;;;;;;;17.37;100.00;101198.19;4971792;28;20266;-43
2022/08/01 06:03:07;;;;;;;11.65;7.68;;;;;;;17.43;100.00;101202.38;4971569;28;20182;-45
2022/08/01 06:05:32;;;;;;;15.85;7.70;;;;;;;17.43;100.00;101200.53;4971700;28;20174;-43
2022/08/01 06:07:58;;;;;;;13.82;8.20;;;;;;;17.27;100.00;101207.84;4971663;28;20182;-45
2022/08/01 06:10:24;;;;;;;15.23;7.82;;;;;;;17.18;100.00;101209.25;4971463;28;20170;-44
2022/08/01 06:12:49;;;;;;;9.40;6.00;;;;;;;17.26;100.00;101206.97;4971315;28;20590;-43
2022/08/01 06:15:15;;;;;;;12.45;6.22;;;;;;;17.15;100.00;101208.59;4971311;28;20166;-45
2022/08/01 06:17:41;;;;;;;5.95;4.55;;;;;;;16.96;100.00;101211.50;4971721;28;20193;-44
2022/08/01 06:20:07;;;;;;;5.85;3.83;;;;;;;17.14;100.00;101214.94;4971638;28;20178;-43
2022/08/01 06:22:33;;;;;;;6.30;4.05;;;;;;;17.14;100.00;101231.19;4971679;28;20293;-43
2022/08/01 06:24:58;;;;;;;4.50;3.72;;;;;;;17.14;100.00;101229.34;4971375;28;20170;-43
2022/08/01 06:27:26;;;;;;;4.05;3.58;;;;;;;17.02;100.00;101236.38;4971390;28;20728;-46
2022/08/01 06:29:55;;;;;;;4.63;3.25;;;;;;;17.14;100.00;101234.75;4977305;28;20189;-44
2022/08/01 06:32:22;;;;;;;5.43;3.35;;;;;;;17.22;100.00;101243.31;4990779;28;20676;-44
2022/08/01 06:34:48;;;;;;;7.22;3.75;;;;;;;17.22;100.00;101246.03;4990679;28;20185;-45
2022/08/01 06:37:14;;;;;;;10.27;4.57;;;;;;;17.07;100.00;101238.81;4990765;28;20269;-45
2022/08/01 06:39:40;;;;;;;9.73;4.75;;;;;;;17.01;100.00;101247.28;4990877;28;20260;-43
2022/08/01 06:42:05;;;;;;;7.47;4.78;;;;;;;16.74;100.00;101256.00;4990671;28;20205;-46
2022/08/01 06:44:31;;;;;;;9.32;4.53;;;;;;;16.68;100.00;101250.94;4990689;28;20197;-43
2022/08/01 06:46:58;;;;;;;8.43;4.30;;;;;;;16.68;100.00;101259.97;4989461;28;20177;-45
2022/08/01 06:49:24;;;;;;;8.27;4.70;;;;;;;16.62;100.00;101254.91;4989558;28;20169;-41
2022/08/01 06:51:49;;;;;;;11.05;4.68;;;;;;;16.63;100.00;101256.63;4990541;28;20236;-43
2022/08/01 06:54:16;;;;;;;9.90;3.83;;;;;;;16.68;100.00;101261.78;4990612;28;20244;-46
2022/08/01 06:56:42;;;;;;;12.20;3.75;;;;;;;16.61;100.00;101280.19;4994035;28;20200;-45
2022/08/01 06:59:07;;;;;;;8.93;4.07;;;;;;;16.35;100.00;101281.63;4994492;28;20815;-45
2022/08/01 07:01:32;;;;;;;6.25;4.20;;;;;;;16.16;100.00;101280.91;4994668;28;20201;-44
2022/08/01 07:03:58;;;;;;;10.73;4.80;;;;;;;16.11;100.00;101283.00;4994111;28;20581;-43
2022/08/01 07:06:25;;;;;;;12.63;4.47;;;;;;;16.03;100.00;101275.31;4994496;28;20560;-45
2022/08/01 07:08:51;;;;;;;8.15;3.90;;;;;;;16.16;100.00;101289.91;4994450;28;20367;-43
2022/08/01 07:11:18;;;;;;;9.23;3.53;;;;;;;16.13;100.00;101300.00;4994256;28;20688;-44
2022/08/01 07:13:45;;;;;;;8.52;3.33;;;;;;;16.13;100.00;101298.16;4993904;28;20194;-43
2022/08/01 07:16:14;;;;;;;7.05;2.80;;;;;;;16.10;100.00;101292.94;4994310;28;20212;-43
2022/08/01 07:18:41;;;;;;;6.88;3.08;;;;;;;16.00;100.00;101306.06;4994422;28;20304;-44
2022/08/01 07:21:06;;;;;;;6.93;3.20;;;;;;;16.05;100.00;101309.41;4993419;28;20297;-45
2022/08/01 07:23:32;;;;;;;5.53;2.90;;;;;;;16.16;100.00;101305.22;4993824;28;20248;-46
2022/08/01 07:25:58;;;;;;;8.60;2.45;;;;;;;16.28;100.00;101318.09;4993826;28;20192;-44
2022/08/01 07:28:24;;;;;;;9.45;2.47;;;;;;;16.46;100.00;101313.50;4994123;28;20177;-45
2022/08/01 07:30:50;;;;;;;7.47;2.30;;;;;;;16.43;100.00;101317.25;4993981;28;20584;-46
2022/08/01 07:33:15;;;;;;;6.68;2.10;;;;;;;16.67;100.00;101320.44;4976141;28;20231;-43
2022/08/01 07:35:42;;;;;;;4.85;1.40;;;;;;;16.78;92.71;101319.81;4993720;28;20188;-41
2022/08/01 07:38:07;;;;;;;8.25;1.80;;;;;;;17.71;88.64;101326.22;4993735;28;20173;-44
2022/08/01 07:40:33;;;;;;;7.07;1.70;;;;;;;17.72;85.91;101327.94;4993771;28;20656;-44
2022/08/01 07:42:59;;;;;;;8.45;2.25;;;;;;;17.70;85.04;101333.44;4993521;28;20547;-44
2022/08/01 07:45:26;;;;;;;6.88;1.73;;;;;;;18.29;83.71;101327.19;4988676;28;20181;-45
2022/08/01 07:47:52;;;;;;;11.05;1.90;;;;;;;18.33;84.46;101329.63;4993687;28;20170;-43
2022/08/01 07:50:18;;;;;;;8.93;1.98;;;;;;;19.09;83.73;101338.41;4991028;28;20189;-43
2022/08/01 07:52:44;;;;;;;4.63;1.60;;;;;;;18.92;82.89;101340.38;4983311;28;20213;-43
2022/08/01 07:55:10;;;;;;;8.55;2.08;;;;;;;18.05;87.08;101337.72;4973549;28;20178;-44
2022/08/01 07:57:37;;;;;;;4.38;1.80;;;;;;;17.78;88.60;101357.41;4974067;28;20182;-44
2022/08/01 08:00:08;;;;;;;10.27;2.30;;;;;;;17.32;90.41;101370.94;4972699;28;20285;-42
2022/08/01 08:02:33;;;;;;;8.52;2.63;;;;;;;16.96;92.06;101363.09;4973639;28;20285;-44
2022/08/01 08:04:59;;;;;;;11.15;2.90;;;;;;;17.27;91.33;101376.63;4973630;28;21041;-44
2022/08/01 08:07:24;;;;;;;10.45;2.70;;;;;;;18.05;88.64;101376.56;4973161;28;20178;-43
2022/08/01 08:09:50;;;;;;;9.18;2.35;;;;;;;17.94;88.16;101376.34;4974078;28;20186;-48
2022/08/01 08:12:15;;;;;;;14.15;2.78;;;;;;;17.74;88.28;101382.06;4973648;28;20312;-43
2022/08/01 08:14:41;;;;;;;13.23;2.50;;;;;;;18.08;88.46;101379.09;4973392;28;20616;-43
2022/08/01 08:17:06;;;;;;;10.32;2.40;;;;;;;18.12;86.52;101386.06;4973844;28;20190;-43
2022/08/01 08:19:33;;;;;;;10.85;1.73;;;;;;;17.73;85.34;101370.31;4973105;28;20202;-44
2022/08/01 08:22:01;;;;;;;10.43;2.05;;;;;;;18.36;82.91;101363.81;4988369;28;20623;-43
2022/08/01 08:24:27;;;;;;;7.35;2.40;;;;;;;18.58;78.93;101359.75;4988876;28;20205;-41
2022/08/01 08:27:00;;;;;;;9.32;2.40;;;;;;;18.92;79.24;101375.66;4993147;28;20353;-45
2022/08/01 08:29:29;;;;;;;12.65;2.53;;;;;;;19.26;76.28;101372.59;4990465;28;20185;-43
2022/08/01 08:31:55;;;;;;;14.45;2.40;;;;;;;19.38;73.33;101382.66;4973416;28;20209;-43
2022/08/01 08:34:21;;;;;;;10.40;2.33;;;;;;;19.68;73.31;101387.00;4973265;28;20285;-41
2022/08/01 08:36:48;;;;;;;11.82;2.50;;;;;;;20.01;72.27;101375.69;4972874;28;20228;-45
2022/08/01 08:39:14;;;;;;;11.85;2.63;;;;;;;19.84;71.69;101387.72;4973497;28;20210;-46
2022/08/01 08:41:39;;;;;;;14.23;2.75;;;;;;;19.85;73.15;101388.59;4973048;28;20636;-46
2022/08/01 08:44:06;;;;;;;7.63;2.25;;;;;;;19.37;72.62;101391.75;4973166;28;20532;-46
2022/08/01 08:46:33;;;;;;;10.65;2.58;;;;;;;19.52;73.36;101393.44;4971785;28;20190;-44
2022/08/01 08:49:01;;;;;;;10.10;2.75;;;;;;;19.63;72.49;101398.16;4973356;28;20665;-44
2022/08/01 08:51:27;;;;;;;10.85;2.80;;;;;;;20.22;71.51;101392.34;4973312;28;20237;-42
2022/08/01 08:53:57;;;;;;;11.15;2.58;;;;;;;19.95;70.66;101392.44;4972248;28;20206;-43
2022/08/01 08:56:26;;;;;;;11.68;2.58;;;;;;;20.12;69.97;101404.88;4973299;28;20202;-43
2022/08/01 08:58:51;;;;;;;10.43;2.38;;;;;;;20.11;69.25;101398.53;4972737;28;20186;-44
2022/08/01 09:01:17;;;;;;;9.57;2.30;;;;;;;19.78;70.92;101406.31;4972130;28;20217;-45
2022/08/01 09:03:44;;;;;;;10.20;2.65;;;;;;;20.03;69.98;101402.78;4971826;28;20667;-48
2022/08/01 09:06:10;;;;;;;9.93;2.60;;;;;;;20.65;69.91;101402.13;4971695;28;20170;-46
2022/08/01 09:08:36;;;;;;;10.82;2.30;;;;;;;20.67;68.85;101413.75;4972846;28;20185;-46
2022/08/01 09:11:03;;;;;;;13.20;2.90;;;;;;;20.21;68.86;101406.97;4971279;28;20201;-44
2022/08/01 09:13:29;;;;;;;9.60;2.30;;;;;;;19.89;66.86;101411.88;4972044;28;20198;-47
2022/08/01 09:15:58;;;;;;;9.77;2.25;;;;;;;20.49;67.00;101414.06;4972701;28;20186;-45
2022/08/01 09:18:40;;;;;;;9.63;2.53;;;;;;;20.81;67.18;101410.91;4972252;28;20193;-47
2022/08/01 09:21:05;;;;;;;9.30;2.80;;;;;;;20.45;67.78;101409.81;4972352;28;20229;-46
2022/08/01 09:23:42;;;;;;;11.48;2.55;;;;;;;20.96;67.31;101407.06;4971818;28;20575;-44
2022/08/01 09:26:09;;;;;;;8.65;2.08;;;;;;;20.38;65.83;101412.09;4972269;28;20180;-46
2022/08/01 09:28:35;;;;;;;12.48;2.72;;;;;;;20.96;67.42;101409.78;4971303;28;20192;-47
2022/08/01 09:31:09;;;;;;;12.68;2.60;;;;;;;20.69;67.43;101417.25;4987488;28;20280;-46
2022/08/01 09:34:03;;;;;;;15.10;2.78;;;;;;;20.50;67.28;101423.97;4981401;28;20208;-45
2022/08/01 09:36:55;;;;;;;9.88;2.67;;;;;;;19.35;68.02;101423.63;4972214;28;20216;-45
2022/08/01 09:39:39;;;;;;;12.05;2.63;;;;;;;20.36;66.76;101416.78;4972273;28;20182;-45
2022/08/01 09:42:25;;;;;;;15.05;2.58;;;;;;;21.07;64.73;101416.31;4971685;28;20245;-47
2022/08/01 09:44:51;;;;;;;12.88;2.90;;;;;;;21.21;65.53;101416.19;4971255;28;20240;-45
2022/08/01 09:47:20;;;;;;;11.50;2.50;;;;;;;21.29;66.55;101427.38;4971771;28;20367;-45
2022/08/01 09:49:52;;;;;;;8.13;2.33;;;;;;;21.18;64.23;101432.75;4971887;28;20177;-46
2022/08/01 09:52:23;;;;;;;11.95;2.58;;;;;;;21.21;63.28;101658.75;4971653;28;20217;-46
2022/08/01 09:54:53;;;;;;;4.53;1.38;;;;;;;21.51;61.01;101421.22;4971478;28;20173;-46
2022/08/01 09:57:19;;;;;;;9.07;2.05;;;;;;;21.21;62.83;101432.53;4971806;28;20170;-47
2022/08/01 09:59:51;;;;;;;6.75;2.22;;;;;;;20.92;62.41;101435.50;4971603;28;20190;-46
2022/08/01 10:02:36;;;;;;;7.20;2.28;;;;;;;21.77;63.23;101434.75;4971924;28;20202;-46
2022/08/01 10:05:04;;;;;;;9.82;2.03;;;;;;;21.84;62.48;101430.56;4971032;28;20181;-46
2022/08/01 10:07:30;;;;;;;8.35;2.00;;;;;;;21.59;60.25;101448.78;4971801;28;20249;-46
2022/08/01 10:10:07;;;;;;;13.25;2.10;;;;;;;21.20;60.95;101430.78;4971767;28;20697;-46
2022/08/01 10:12:33;;;;;;;7.35;2.00;;;;;;;21.73;60.73;101435.97;4971305;28;20297;-46
2022/08/01 10:14:58;;;;;;;11.30;2.30;;;;;;;22.10;59.96;101425.84;4971463;28;20680;-47
2022/08/01 10:17:25;;;;;;;6.63;1.63;;;;;;;21.72;58.55;101443.28;4971859;28;20228;-47
2022/08/01 10:19:54;;;;;;;10.63;2.28;;;;;;;21.12;59.45;101441.38;4971940;28;20317;-49
2022/08/01 10:22:23;;;;;;;6.35;1.70;;;;;;;21.72;58.22;101437.84;4972561;28;20293;-47
2022/08/01 10:24:55;;;;;;;6.63;1.65;;;;;;;22.13;58.29;101438.41;4990044;28;20185;-48
2022/08/01 10:27:22;;;;;;;15.02;2.13;;;;;;;22.01;57.10;101438.31;4990961;28;20196;-47
2022/08/01 10:30:09;;;;;;;8.82;2.30;;;;;;;21.85;59.56;101437.78;4989203;28;20203;-47
2022/08/01 10:32:35;;;;;;;7.75;1.67;;;;;;;22.00;57.55;101436.59;4990699;28;20235;-48
2022/08/01 10:35:03;;;;;;;5.95;1.88;;;;;;;22.11;48.22;101372.16;4990020;28;20173;-47
2022/08/01 10:37:28;;;;;;;6.50;1.60;;;;;;;21.80;56.71;101443.59;4991019;28;20255;-48
2022/08/01 10:39:55;;;;;;;8.27;2.00;;;;;;;22.27;55.94;101437.34;4990847;28;20885;-49
2022/08/01 10:42:21;;;;;;;6.80;2.00;;;;;;;21.07;56.44;101443.56;4990804;28;20895;-48
2022/08/01 10:44:47;;;;;;;6.53;1.75;;;;;;;20.81;57.50;101443.59;4990614;28;20191;-48
2022/08/01 10:47:17;;;;;;;5.18;1.85;;;;;;;21.12;57.23;101444.09;4990554;28;20543;-47
2022/08/01 10:50:01;;;;;;;9.15;1.70;;;;;;;21.07;57.09;101443.56;4990626;28;20177;-47
2022/08/01 10:52:27;;;;;;;8.15;1.92;;;;;;;21.58;56.43;101448.91;4990686;28;20197;-47
2022/08/01 10:55:04;;;;;;;11.10;1.90;;;;;;;21.66;54.91;101454.66;4990258;28;20161;-47
2022/08/01 10:57:44;;;;;;;8.23;1.58;;;;;;;21.47;53.92;101448.84;4990513;28;20175;-47
2022/08/01 11:00:17;;;;;;;10.52;1.70;;;;;;;21.53;54.99;101451.09;4990608;28;20165;-46
2022/08/01 11:03:00;;;;;;;7.90;1.83;;;;;;;21.50;53.92;101456.81;4990684;28;20284;-47
2022/08/01 11:05:29;;;;;;;5.75;1.52;;;;;;;21.65;54.92;101455.66;4990380;28;20215;-46
2022/08/01 11:07:55;;;;;;;8.90;1.48;;;;;;;21.73;54.71;101450.47;4990701;28;20248;-47
2022/08/01 11:10:39;;;;;;;8.27;1.73;;;;;;;21.98;54.19;101449.50;4990135;28;20620;-47
2022/08/01 11:13:10;;;;;;;8.52;1.70;;;;;;;22.24;55.43;101456.69;4990085;28;20280;-48
2022/08/01 11:15:38;;;;;;;7.47;1.60;;;;;;;21.64;55.82;101462.09;4989139;28;20209;-47
2022/08/01 11:18:26;;;;;;;8.85;1.67;;;;;;;22.23;54.50;101449.50;4990710;28;20177;-48